Time;durP1;ratioP1;P1;durP2;ratioP2;P2;SDS_P1;SDS_P2;PMS_P1;PMS_P2;Temp;Humidity;BMP_temperature;BMP_pressure;BME280_temperature;BME280_humidity;BME280_pressure;Samples;Min_cycle;Max_cycle;Signal;HPM_P1;HPM_P2
2023/09/06 00:00:31;;;;;;;3.50;2.60;;;;;;;19.07;67.31;99669.72;5047037;28;20601;-78
2023/09/06 00:02:57;;;;;;;2.00;1.80;;;;;;;18.95;67.57;99674.41;5046535;28;20418;-78
2023/09/06 00:05:23;;;;;;;5.07;2.83;;;;;;;18.89;67.74;99680.34;5048035;28;20457;-77
2023/09/06 00:07:48;;;;;;;3.93;2.50;;;;;;;18.86;67.66;99677.97;5045854;28;20837;-78
2023/09/06 00:10:17;;;;;;;4.07;3.07;;;;;;;18.81;67.53;99674.94;5049158;28;20203;-77
2023/09/06 00:12:43;;;;;;;2.20;2.00;;;;;;;18.74;67.78;99682.63;5047174;28;20207;-78
2023/09/06 00:15:09;;;;;;;5.60;3.43;;;;;;;18.66;67.69;99671.88;5046417;28;21099;-77
2023/09/06 00:17:38;;;;;;;2.57;1.97;;;;;;;18.60;67.93;99677.78;5047804;28;20207;-77
2023/09/06 00:20:20;;;;;;;3.53;3.23;;;;;;;18.54;67.97;99680.06;5046671;28;20466;-78
2023/09/06 00:22:54;;;;;;;3.33;2.40;;;;;;;18.51;68.50;99677.69;5045740;28;20924;-76
2023/09/06 00:25:20;;;;;;;3.33;2.33;;;;;;;18.54;68.29;99665.94;5028768;28;20828;-78
2023/09/06 00:27:45;;;;;;;3.13;2.83;;;;;;;18.58;68.42;99676.13;5034058;28;20463;-77
2023/09/06 00:30:11;;;;;;;3.43;2.53;;;;;;;18.62;68.09;99676.66;5025045;28;20227;-76
2023/09/06 00:32:36;;;;;;;3.50;2.30;;;;;;;18.65;68.05;99673.72;5023890;28;20273;-76
2023/09/06 00:35:01;;;;;;;2.93;2.70;;;;;;;18.62;67.65;99673.16;5031594;28;20222;-78
2023/09/06 00:37:37;;;;;;;2.60;2.40;;;;;;;18.58;68.26;99680.63;5027258;28;20989;-76
2023/09/06 00:42:39;;;;;;;4.63;3.30;;;;;;;18.53;68.14;99680.22;5032743;28;20586;-76
2023/09/06 00:45:05;;;;;;;3.80;3.40;;;;;;;18.52;68.17;99683.84;5025030;28;20573;-76
2023/09/06 00:47:31;;;;;;;3.13;2.83;;;;;;;18.52;68.15;99678.53;5033964;28;20213;-76
2023/09/06 00:49:56;;;;;;;2.80;2.60;;;;;;;18.51;67.98;99671.53;5019231;28;20447;-77
2023/09/06 00:52:22;;;;;;;3.57;2.70;;;;;;;18.49;67.99;99681.47;5025554;28;20442;-76
2023/09/06 00:54:48;;;;;;;3.53;2.77;;;;;;;18.45;68.04;99683.59;5046735;28;20220;-76
2023/09/06 00:57:13;;;;;;;3.57;3.27;;;;;;;18.41;68.03;99687.53;5045874;28;20197;-76
2023/09/06 00:59:39;;;;;;;2.53;2.33;;;;;;;18.40;67.76;99683.22;5045335;28;20433;-76
2023/09/06 01:02:05;;;;;;;3.70;2.80;;;;;;;18.39;67.82;99683.34;5026525;28;20197;-76
2023/09/06 01:04:31;;;;;;;4.67;3.23;;;;;;;18.35;68.04;99685.47;5044743;28;20478;-76
2023/09/06 01:07:00;;;;;;;3.63;3.00;;;;;;;18.34;68.11;99675.81;5044328;28;20495;-77
2023/09/06 01:09:29;;;;;;;3.57;3.10;;;;;;;18.34;68.42;99671.34;5045652;28;20209;-76
2023/09/06 01:11:54;;;;;;;2.87;2.67;;;;;;;18.34;68.42;99684.63;5026332;28;20516;-76
2023/09/06 01:14:20;;;;;;;2.93;2.20;;;;;;;18.33;67.98;99680.31;5045768;28;20426;-76
2023/09/06 01:16:48;;;;;;;5.07;3.00;;;;;;;18.32;67.86;99683.09;5044819;28;20766;-76
2023/09/06 01:19:14;;;;;;;4.37;2.63;;;;;;;18.32;67.91;99685.75;5046126;28;20197;-76
2023/09/06 01:21:47;;;;;;;4.50;2.70;;;;;;;18.31;67.81;99676.13;5025725;28;20475;-76
2023/09/06 01:24:15;;;;;;;4.43;2.80;;;;;;;18.30;67.83;99683.22;5044412;28;20466;-76
2023/09/06 01:26:41;;;;;;;2.00;1.77;;;;;;;18.28;67.92;99685.22;5045234;28;20504;-76
2023/09/06 01:29:07;;;;;;;2.20;1.77;;;;;;;18.19;67.97;99687.91;5045690;28;20434;-76
2023/09/06 01:31:34;;;;;;;5.30;2.70;;;;;;;18.00;68.47;99688.78;5028398;28;20823;-77
2023/09/06 01:34:10;;;;;;;2.20;1.90;;;;;;;17.80;68.54;99696.78;5045148;28;20725;-76
2023/09/06 01:36:44;;;;;;;2.40;2.20;;;;;;;17.65;69.37;99696.34;5031200;28;21084;-76
2023/09/06 01:39:14;;;;;;;2.20;2.00;;;;;;;17.56;69.45;99699.03;5046622;28;20202;-75
2023/09/06 01:41:44;;;;;;;2.60;2.40;;;;;;;17.53;69.81;99704.63;5046492;28;20455;-77
2023/09/06 01:44:10;;;;;;;3.00;2.47;;;;;;;17.52;69.65;99701.09;5042864;28;20520;-76
2023/09/06 01:46:35;;;;;;;2.30;2.07;;;;;;;17.53;69.38;99708.09;5044802;28;20456;-76
2023/09/06 01:49:22;;;;;;;3.80;2.27;;;;;;;17.51;69.25;99706.56;5049195;28;20551;-76
2023/09/06 01:51:50;;;;;;;2.43;2.23;;;;;;;17.54;69.43;99704.47;5046972;28;20673;-76
2023/09/06 01:54:16;;;;;;;2.80;2.33;;;;;;;17.56;69.22;99699.84;5044148;28;20460;-77
2023/09/06 01:56:45;;;;;;;2.90;2.43;;;;;;;17.60;69.07;99703.06;5030347;28;20597;-76
2023/09/06 01:59:10;;;;;;;3.00;2.47;;;;;;;17.59;68.87;99701.38;5048968;28;20288;-76
2023/09/06 02:01:36;;;;;;;4.83;3.40;;;;;;;17.60;69.07;99705.72;5029085;28;21052;-76
2023/09/06 02:04:05;;;;;;;3.90;3.17;;;;;;;17.58;68.95;99703.22;5044962;28;20216;-76
2023/09/06 02:06:30;;;;;;;2.50;2.30;;;;;;;17.56;69.00;99696.38;5045108;28;20680;-76
2023/09/06 02:08:56;;;;;;;5.03;2.17;;;;;;;17.57;68.92;99698.88;5047621;28;20459;-75
2023/09/06 02:11:22;;;;;;;2.70;2.50;;;;;;;17.57;69.11;99704.19;5045152;28;20205;-76
2023/09/06 02:13:47;;;;;;;3.20;2.77;;;;;;;17.58;68.87;99700.56;5044645;28;20462;-76
2023/09/06 02:16:12;;;;;;;3.57;2.77;;;;;;;17.57;68.95;99703.34;5045520;28;20248;-76
2023/09/06 02:18:38;;;;;;;3.00;2.13;;;;;;;17.55;68.75;99695.53;5030361;28;20193;-76
2023/09/06 02:21:03;;;;;;;7.57;2.60;;;;;;;17.53;68.69;99694.81;5027759;28;20204;-75
2023/09/06 02:23:29;;;;;;;3.43;3.13;;;;;;;17.51;68.65;99702.09;5026728;28;20238;-76
2023/09/06 02:25:56;;;;;;;4.03;2.30;;;;;;;17.49;68.55;99696.06;5027959;28;20423;-76
2023/09/06 02:28:21;;;;;;;2.67;2.30;;;;;;;17.45;68.66;99698.19;5023635;28;20282;-76
2023/09/06 02:30:47;;;;;;;2.33;2.00;;;;;;;17.42;68.71;99694.97;5044046;28;21193;-76
2023/09/06 02:33:14;;;;;;;2.33;2.13;;;;;;;17.32;68.83;99694.13;5029514;28;20204;-76
2023/09/06 02:35:44;;;;;;;2.73;2.47;;;;;;;17.26;69.07;99698.16;5046942;28;20213;-77
2023/09/06 02:38:11;;;;;;;3.50;2.83;;;;;;;17.22;69.08;99699.41;5047384;28;20551;-76
2023/09/06 02:40:40;;;;;;;2.80;2.40;;;;;;;17.18;69.18;99685.59;5030866;28;20461;-76
2023/09/06 02:43:06;;;;;;;7.10;2.80;;;;;;;17.16;69.20;99702.63;5043265;28;20491;-76
2023/09/06 02:45:38;;;;;;;4.33;2.63;;;;;;;17.14;69.04;99694.78;5045324;28;20455;-76
2023/09/06 02:48:12;;;;;;;3.03;2.83;;;;;;;17.15;69.14;99696.47;5043614;28;20475;-76
2023/09/06 02:50:39;;;;;;;3.40;2.50;;;;;;;17.12;68.96;99704.72;5043128;28;21283;-75
2023/09/06 02:53:15;;;;;;;6.83;2.83;;;;;;;17.09;68.99;99699.66;5026500;28;20513;-76
2023/09/06 02:55:41;;;;;;;4.30;2.70;;;;;;;17.09;69.13;99704.13;5044905;28;20505;-76
2023/09/06 02:58:07;;;;;;;2.97;2.60;;;;;;;17.07;69.07;99698.16;5024325;28;20545;-76
2023/09/06 03:00:36;;;;;;;3.53;3.23;;;;;;;17.03;68.96;99706.34;5042355;28;20454;-75
2023/09/06 03:03:07;;;;;;;5.77;2.40;;;;;;;16.99;69.37;99706.78;5039565;28;20557;-76
2023/09/06 03:05:41;;;;;;;4.55;2.60;;;;;;;16.89;69.44;99712.06;5023887;28;20497;-76
2023/09/06 03:08:14;;;;;;;5.20;2.80;;;;;;;16.84;69.57;99708.13;5018442;28;20215;-76
2023/09/06 03:10:41;;;;;;;3.53;2.27;;;;;;;16.79;69.82;99708.53;5010733;28;20451;-76
2023/09/06 03:13:09;;;;;;;3.20;2.40;;;;;;;16.80;69.93;99707.56;5025227;28;20453;-76
2023/09/06 03:15:35;;;;;;;2.83;2.53;;;;;;;16.83;69.58;99709.13;5023311;28;20466;-76
2023/09/06 03:18:02;;;;;;;2.27;2.00;;;;;;;16.83;69.64;99702.00;5033483;28;20438;-75
2023/09/06 03:20:33;;;;;;;3.70;2.80;;;;;;;16.85;69.51;99708.00;5023782;28;20999;-76
2023/09/06 03:23:02;;;;;;;3.47;2.80;;;;;;;16.85;69.44;99717.75;5025897;28;20467;-77
2023/09/06 03:25:29;;;;;;;3.17;2.87;;;;;;;16.84;69.40;99718.75;5033143;28;21300;-76
2023/09/06 03:28:08;;;;;;;5.30;3.13;;;;;;;16.81;69.55;99718.03;5015755;28;20460;-75
2023/09/06 03:30:35;;;;;;;4.03;2.57;;;;;;;16.79;69.53;99727.94;5011727;28;20512;-76
2023/09/06 03:33:05;;;;;;;4.00;2.70;;;;;;;16.78;69.53;99733.38;5028283;28;20493;-76
2023/09/06 03:35:41;;;;;;;3.70;3.20;;;;;;;16.77;70.06;99737.84;5010986;28;20453;-76
2023/09/06 03:38:17;;;;;;;3.23;2.70;;;;;;;16.73;70.24;99730.25;5007447;28;20654;-76
2023/09/06 03:40:49;;;;;;;2.20;1.80;;;;;;;16.64;70.38;99741.69;5006455;28;21059;-76
2023/09/06 03:43:19;;;;;;;2.90;2.30;;;;;;;16.55;70.54;99732.69;5008446;28;20460;-76
2023/09/06 03:45:54;;;;;;;2.83;2.60;;;;;;;16.48;70.85;99739.50;5021728;28;20527;-77
2023/09/06 03:48:22;;;;;;;3.30;2.50;;;;;;;16.45;70.56;99747.75;5008099;28;20583;-77
2023/09/06 03:50:53;;;;;;;2.40;2.20;;;;;;;16.43;70.54;99736.41;5023490;28;20455;-75
2023/09/06 03:53:18;;;;;;;4.77;2.67;;;;;;;16.41;70.60;99741.84;5018341;28;20454;-76
2023/09/06 03:55:46;;;;;;;8.30;2.77;;;;;;;16.43;70.57;99736.41;5018823;28;20442;-76
2023/09/06 03:58:12;;;;;;;4.07;2.60;;;;;;;16.43;70.66;99742.56;5010427;28;20581;-77
2023/09/06 04:00:42;;;;;;;4.60;3.50;;;;;;;16.43;70.45;99742.56;4996993;28;20560;-76
2023/09/06 04:03:14;;;;;;;4.90;2.90;;;;;;;16.41;70.53;99746.31;5004803;28;20456;-76
2023/09/06 04:05:43;;;;;;;4.63;3.10;;;;;;;16.42;70.33;99750.63;4993532;28;20574;-75
2023/09/06 04:08:09;;;;;;;4.10;3.33;;;;;;;16.42;70.38;99751.50;5006239;28;20494;-77
2023/09/06 04:10:38;;;;;;;6.20;3.17;;;;;;;16.39;70.47;99749.09;5002042;28;20443;-78
2023/09/06 04:13:07;;;;;;;4.30;3.00;;;;;;;16.31;70.70;99756.84;5028696;28;20494;-77
2023/09/06 04:15:34;;;;;;;3.17;2.60;;;;;;;16.22;70.75;99762.94;4999494;28;20471;-77
2023/09/06 04:18:02;;;;;;;3.30;3.00;;;;;;;16.16;70.96;99761.66;5026743;28;20445;-77
2023/09/06 04:20:31;;;;;;;4.57;3.70;;;;;;;16.16;70.92;99753.69;4994107;28;20451;-77
2023/09/06 04:22:59;;;;;;;5.10;3.13;;;;;;;16.13;70.95;99767.22;5028641;28;20432;-77
2023/09/06 04:25:26;;;;;;;2.87;2.53;;;;;;;16.10;71.06;99765.66;5008348;28;20459;-77
2023/09/06 04:27:57;;;;;;;4.33;2.50;;;;;;;16.07;70.70;99760.63;5012294;28;20478;-77
2023/09/06 04:30:28;;;;;;;4.85;2.58;;;;;;;16.06;71.02;99764.22;4995377;28;20460;-78
2023/09/06 04:32:57;;;;;;;3.17;2.33;;;;;;;16.08;70.86;99762.28;5004910;28;20198;-77
2023/09/06 04:35:36;;;;;;;3.85;3.25;;;;;;;16.10;71.14;99776.25;5003198;28;20545;-77
2023/09/06 04:38:02;;;;;;;3.93;2.60;;;;;;;16.11;70.89;99772.63;5025438;28;21001;-78
2023/09/06 04:40:31;;;;;;;2.47;2.00;;;;;;;16.11;70.76;99775.28;5014492;28;20432;-78
2023/09/06 04:42:57;;;;;;;4.30;3.40;;;;;;;16.11;70.79;99777.94;5017977;28;20192;-78
2023/09/06 04:45:22;;;;;;;5.23;2.47;;;;;;;16.06;70.68;99776.63;5006317;28;20452;-77
2023/09/06 04:47:49;;;;;;;3.43;1.90;;;;;;;15.99;70.72;99773.69;5011444;28;20241;-77
2023/09/06 04:50:14;;;;;;;2.03;1.87;;;;;;;15.89;70.79;99772.75;5014484;28;21104;-77
2023/09/06 04:52:45;;;;;;;2.57;2.20;;;;;;;15.80;70.91;99777.00;5015382;28;20975;-78
2023/09/06 04:55:13;;;;;;;2.42;1.98;;;;;;;15.73;71.21;99781.13;5010663;28;20209;-76
2023/09/06 04:57:40;;;;;;;3.15;2.42;;;;;;;15.70;71.18;99774.28;5005119;28;20250;-78
2023/09/06 05:00:11;;;;;;;2.67;2.45;;;;;;;15.67;71.13;99774.50;5015382;28;20189;-77
2023/09/06 05:02:37;;;;;;;4.10;2.63;;;;;;;15.63;71.19;99778.34;5019282;28;20253;-77
2023/09/06 05:05:03;;;;;;;3.20;2.10;;;;;;;15.61;71.18;99780.31;5045540;28;20224;-77
2023/09/06 05:07:30;;;;;;;2.60;2.40;;;;;;;15.62;71.31;99784.63;5026189;28;20622;-78
2023/09/06 05:09:58;;;;;;;3.45;2.80;;;;;;;15.63;71.10;99786.28;5026187;28;20203;-77
2023/09/06 05:12:24;;;;;;;3.25;2.85;;;;;;;15.66;71.23;99786.06;5030006;28;20297;-77
2023/09/06 05:14:50;;;;;;;3.83;3.37;;;;;;;15.74;71.19;99789.91;5017124;28;20887;-77
2023/09/06 05:17:15;;;;;;;3.53;2.97;;;;;;;15.90;70.83;99791.19;5031592;28;21093;-77
2023/09/06 05:19:41;;;;;;;3.60;2.97;;;;;;;16.14;70.18;99790.09;5015630;28;20197;-77
2023/09/06 05:22:06;;;;;;;5.83;3.53;;;;;;;16.27;69.76;99792.56;5024897;28;20206;-78
2023/09/06 05:24:31;;;;;;;3.00;2.63;;;;;;;16.31;69.39;99794.81;5010555;28;20216;-77
2023/09/06 05:26:57;;;;;;;4.00;2.50;;;;;;;16.28;69.37;99788.91;5009253;28;20611;-77
2023/09/06 05:29:23;;;;;;;3.72;2.42;;;;;;;16.24;69.62;99787.50;5012404;28;20192;-77
2023/09/06 05:31:49;;;;;;;4.40;3.13;;;;;;;16.20;69.64;99794.03;5032100;28;20253;-77
2023/09/06 05:34:15;;;;;;;3.38;3.08;;;;;;;16.18;69.78;99796.00;5016266;28;20299;-77
2023/09/06 05:36:40;;;;;;;2.53;2.33;;;;;;;16.24;69.76;99793.66;5027966;28;20200;-77
2023/09/06 05:39:07;;;;;;;5.70;2.78;;;;;;;16.27;69.62;99792.56;5008798;28;20188;-77
2023/09/06 05:41:33;;;;;;;2.03;1.93;;;;;;;16.27;69.51;99781.94;5023045;28;20196;-77
2023/09/06 05:43:58;;;;;;;2.40;2.20;;;;;;;16.27;69.33;99788.09;4993528;28;21371;-77
2023/09/06 05:46:24;;;;;;;4.07;2.80;;;;;;;16.28;69.43;99794.22;5018637;28;20502;-77
2023/09/06 05:48:50;;;;;;;5.30;2.03;;;;;;;16.30;69.39;99797.59;5006319;28;20588;-77
2023/09/06 05:51:17;;;;;;;2.20;1.60;;;;;;;16.35;69.35;99795.38;5005420;28;21046;-77
2023/09/06 05:53:42;;;;;;;6.03;4.37;;;;;;;16.40;69.12;99795.84;5021087;28;20551;-77
2023/09/06 05:56:08;;;;;;;5.47;3.13;;;;;;;16.52;68.98;99794.78;4996828;28;20666;-77
2023/09/06 05:58:37;;;;;;;4.73;3.30;;;;;;;16.91;68.37;99796.84;5000821;28;20251;-77
2023/09/06 06:01:06;;;;;;;2.90;2.70;;;;;;;17.59;66.90;99805.81;5025246;28;20202;-77
2023/09/06 06:03:32;;;;;;;4.27;3.17;;;;;;;18.28;64.93;99790.72;5018478;28;20460;-77
2023/09/06 06:05:58;;;;;;;3.50;3.03;;;;;;;18.87;63.07;99796.75;5023712;28;20536;-78
2023/09/06 06:08:23;;;;;;;5.80;2.93;;;;;;;18.97;62.28;99795.72;5021369;28;20311;-78
2023/09/06 06:10:48;;;;;;;8.03;3.27;;;;;;;18.85;62.76;99786.28;5016809;28;20645;-78
2023/09/06 06:13:14;;;;;;;5.03;2.87;;;;;;;18.85;62.80;99798.72;5030644;28;20200;-77
2023/09/06 06:15:39;;;;;;;6.70;2.90;;;;;;;19.21;62.16;99797.03;5029424;28;20312;-78
2023/09/06 06:18:05;;;;;;;3.00;2.07;;;;;;;19.84;60.71;99790.88;5015132;28;20182;-78
2023/09/06 06:20:31;;;;;;;4.03;2.70;;;;;;;20.54;58.52;99790.94;5031201;28;20198;-78
2023/09/06 06:23:00;;;;;;;3.03;2.23;;;;;;;21.12;57.09;99784.91;5015952;28;20220;-78
2023/09/06 06:25:25;;;;;;;4.20;2.80;;;;;;;21.33;56.16;99789.81;5026948;28;20437;-78
2023/09/06 06:27:51;;;;;;;4.10;2.80;;;;;;;21.21;56.12;99793.78;5009536;28;20449;-78
2023/09/06 06:30:18;;;;;;;9.40;4.07;;;;;;;20.99;56.46;99788.00;5017181;28;20207;-78
2023/09/06 06:32:44;;;;;;;4.00;3.07;;;;;;;20.77;56.90;99786.75;5009417;28;21170;-78
2023/09/06 06:35:11;;;;;;;7.23;3.10;;;;;;;20.60;57.11;99786.81;5025209;28;20475;-78
2023/09/06 06:37:37;;;;;;;4.00;2.50;;;;;;;20.39;57.03;99796.00;5032073;28;20973;-78
2023/09/06 06:40:05;;;;;;;4.20;3.80;;;;;;;20.22;57.45;99789.69;5037233;28;20449;-78
2023/09/06 06:42:34;;;;;;;3.43;2.87;;;;;;;20.05;57.28;99785.22;5029435;28;20425;-78
2023/09/06 06:45:03;;;;;;;3.90;2.57;;;;;;;19.90;57.45;99792.91;5017841;28;20991;-78
2023/09/06 06:47:28;;;;;;;3.17;2.63;;;;;;;19.75;57.62;99786.47;5020261;28;20458;-78
2023/09/06 06:49:54;;;;;;;4.40;2.70;;;;;;;19.65;57.89;99795.31;5019459;28;20460;-78
2023/09/06 06:52:20;;;;;;;4.17;3.57;;;;;;;19.57;57.77;99797.91;5033107;28;20875;-78
2023/09/06 06:54:46;;;;;;;2.60;2.40;;;;;;;19.53;57.94;99801.88;5033116;28;21426;-78
2023/09/06 06:57:12;;;;;;;4.13;3.20;;;;;;;19.51;57.60;99798.53;5033365;28;20205;-78
2023/09/06 06:59:38;;;;;;;3.30;3.00;;;;;;;19.52;57.78;99799.34;5034461;28;20528;-77
2023/09/06 07:02:03;;;;;;;3.40;2.60;;;;;;;19.53;57.67;99803.72;5021255;28;21366;-78
2023/09/06 07:04:29;;;;;;;3.30;2.70;;;;;;;19.54;57.36;99798.22;5031721;28;20928;-78
2023/09/06 07:06:54;;;;;;;3.30;2.47;;;;;;;19.55;57.42;99793.72;5028979;28;20197;-78
2023/09/06 07:09:19;;;;;;;2.67;2.23;;;;;;;19.57;57.39;99802.41;5036252;28;20203;-78
2023/09/06 07:11:45;;;;;;;4.40;3.13;;;;;;;19.62;57.52;99800.13;5020479;28;20759;-77
2023/09/06 07:14:10;;;;;;;4.67;3.17;;;;;;;19.67;57.27;99801.38;5031819;28;20217;-78
2023/09/06 07:16:36;;;;;;;3.50;2.80;;;;;;;19.72;56.83;99797.44;5029941;28;20213;-78
2023/09/06 07:19:01;;;;;;;4.10;2.50;;;;;;;19.77;56.74;99803.16;5039449;28;20210;-78
2023/09/06 07:21:28;;;;;;;4.13;3.20;;;;;;;19.83;56.43;99803.38;5036866;28;20211;-78
2023/09/06 07:23:54;;;;;;;5.10;2.90;;;;;;;19.93;56.17;99789.09;5041943;28;21151;-78
2023/09/06 07:26:19;;;;;;;3.30;2.00;;;;;;;19.98;55.88;99800.16;5035307;28;20519;-78
2023/09/06 07:28:46;;;;;;;5.27;3.00;;;;;;;20.06;55.99;99809.09;5037002;28;20218;-78
2023/09/06 07:31:12;;;;;;;3.13;2.83;;;;;;;20.58;55.16;99804.78;5038294;28;20299;-78
2023/09/06 07:33:41;;;;;;;2.27;2.07;;;;;;;21.52;53.13;99802.09;5021837;28;20466;-78
2023/09/06 07:36:07;;;;;;;3.30;2.10;;;;;;;22.60;50.67;99801.97;5030373;28;20466;-78
2023/09/06 07:38:33;;;;;;;3.70;2.63;;;;;;;23.63;48.15;99793.03;5035121;28;20432;-78
2023/09/06 07:41:00;;;;;;;3.30;2.27;;;;;;;24.63;46.42;99795.59;5041320;28;20510;-78
2023/09/06 07:43:28;;;;;;;3.30;2.50;;;;;;;25.48;44.81;99793.41;5042153;28;20269;-78
2023/09/06 07:45:54;;;;;;;4.23;2.30;;;;;;;25.96;43.21;99786.47;5046576;28;20597;-78
2023/09/06 07:48:20;;;;;;;4.03;3.50;;;;;;;26.13;42.83;99800.47;5035374;28;20452;-78
2023/09/06 07:50:47;;;;;;;3.33;2.53;;;;;;;26.24;42.59;99786.47;5036841;28;21267;-78
2023/09/06 07:53:12;;;;;;;3.60;2.40;;;;;;;26.27;42.53;99785.25;5040759;28;20296;-78
2023/09/06 07:55:37;;;;;;;4.13;2.50;;;;;;;26.39;42.56;99794.50;5041183;28;20552;-79
2023/09/06 07:58:03;;;;;;;7.70;3.07;;;;;;;26.78;41.60;99793.09;5039099;28;20625;-79
2023/09/06 08:00:30;;;;;;;4.10;3.40;;;;;;;27.28;40.88;99792.97;5041473;28;20203;-78
2023/09/06 08:02:56;;;;;;;4.10;3.10;;;;;;;27.80;39.91;99786.06;5040316;28;20185;-78
2023/09/06 08:05:21;;;;;;;3.70;3.00;;;;;;;28.10;39.62;99791.91;5037891;28;20876;-78
2023/09/06 08:07:47;;;;;;;4.53;3.03;;;;;;;28.24;39.20;99790.03;5030821;28;20217;-78
2023/09/06 08:10:13;;;;;;;5.10;2.90;;;;;;;28.54;39.20;99789.63;5037817;28;20890;-79
2023/09/06 08:12:39;;;;;;;3.43;3.03;;;;;;;28.86;38.85;99786.00;5026929;28;20684;-78
2023/09/06 08:15:06;;;;;;;3.57;3.10;;;;;;;29.14;38.53;99784.94;5037279;28;20900;-78
2023/09/06 08:17:31;;;;;;;3.67;3.37;;;;;;;29.28;38.04;99786.53;5030911;28;20232;-78
2023/09/06 08:19:56;;;;;;;2.97;2.70;;;;;;;29.54;37.89;99787.41;5034538;28;20452;-78
2023/09/06 08:22:22;;;;;;;6.33;3.53;;;;;;;29.86;37.45;99788.28;5037491;28;20448;-78
2023/09/06 08:24:47;;;;;;;3.27;2.63;;;;;;;30.10;37.11;99780.41;5041985;28;20233;-78
2023/09/06 08:27:12;;;;;;;4.90;3.43;;;;;;;30.32;36.87;99781.69;5038835;28;20193;-78
2023/09/06 08:29:38;;;;;;;3.60;3.30;;;;;;;30.53;36.55;99772.31;5041386;28;20631;-78
2023/09/06 08:32:03;;;;;;;3.73;2.90;;;;;;;30.67;36.39;99774.91;5023559;28;20331;-78
2023/09/06 08:34:29;;;;;;;4.53;3.43;;;;;;;30.76;35.95;99773.53;5037795;28;20828;-79
2023/09/06 08:36:56;;;;;;;5.80;3.50;;;;;;;30.81;36.04;99769.16;5036041;28;20212;-78
2023/09/06 08:39:21;;;;;;;3.80;2.33;;;;;;;30.89;35.74;99767.16;5038056;28;20287;-79
2023/09/06 08:41:49;;;;;;;4.53;3.60;;;;;;;30.86;35.46;99771.16;5045172;28;20512;-78
2023/09/06 08:44:18;;;;;;;4.53;3.53;;;;;;;30.74;35.77;99770.25;5036438;28;20206;-79
2023/09/06 08:46:45;;;;;;;4.03;3.17;;;;;;;30.53;36.23;99760.66;5039176;28;20705;-78
2023/09/06 08:49:12;;;;;;;4.00;3.40;;;;;;;30.30;36.97;99767.56;5038064;28;20484;-79
2023/09/06 08:51:38;;;;;;;3.30;3.03;;;;;;;29.84;37.29;99760.63;5036261;28;20813;-79
2023/09/06 08:54:05;;;;;;;3.30;3.00;;;;;;;29.25;38.50;99762.59;5037249;28;20463;-78
2023/09/06 08:56:32;;;;;;;4.07;3.70;;;;;;;28.94;39.38;99759.78;5035486;28;20982;-78
2023/09/06 08:58:59;;;;;;;3.93;3.43;;;;;;;28.89;39.22;99763.97;5035732;28;20437;-78
2023/09/06 09:01:25;;;;;;;3.20;2.90;;;;;;;28.86;39.32;99758.16;5035781;28;20491;-79
2023/09/06 09:03:51;;;;;;;4.03;3.63;;;;;;;28.81;39.85;99750.69;5033723;28;20470;-79
2023/09/06 09:06:16;;;;;;;3.90;3.50;;;;;;;28.80;39.60;99759.00;5034197;28;20443;-78
2023/09/06 09:08:42;;;;;;;3.30;2.80;;;;;;;28.77;39.82;99760.25;5028143;28;20245;-78
2023/09/06 09:11:08;;;;;;;3.40;3.10;;;;;;;28.59;40.14;99760.94;5030526;28;20190;-79
2023/09/06 09:13:34;;;;;;;3.80;3.40;;;;;;;28.26;40.55;99758.25;5028405;28;20279;-79
2023/09/06 09:15:59;;;;;;;4.20;3.00;;;;;;;28.00;41.31;99768.03;5029119;28;20456;-79
2023/09/06 09:18:28;;;;;;;4.00;3.50;;;;;;;27.98;41.53;99763.88;5011900;28;20197;-79
2023/09/06 09:20:57;;;;;;;3.90;3.60;;;;;;;27.98;41.82;99764.72;5031415;28;20201;-79
2023/09/06 09:23:22;;;;;;;3.73;3.27;;;;;;;27.91;42.15;99766.56;5008718;28;20863;-79
2023/09/06 09:25:51;;;;;;;5.00;3.23;;;;;;;28.00;42.03;99769.88;5030089;28;21007;-80
2023/09/06 09:28:17;;;;;;;4.13;3.43;;;;;;;28.12;41.94;99770.13;5028223;28;20223;-79
2023/09/06 09:30:42;;;;;;;5.63;3.60;;;;;;;28.18;42.24;99777.38;5025515;28;20444;-80
2023/09/06 09:33:07;;;;;;;4.00;3.60;;;;;;;28.18;42.37;99764.69;5030268;28;20456;-79
2023/09/06 09:35:34;;;;;;;4.30;3.43;;;;;;;28.19;42.29;99765.53;5028587;28;20439;-79
2023/09/06 09:38:01;;;;;;;4.33;3.47;;;;;;;28.23;42.04;99761.38;5007506;28;20452;-80
2023/09/06 09:40:32;;;;;;;4.60;3.67;;;;;;;28.24;42.02;99749.53;5030861;28;20491;-79
2023/09/06 09:43:04;;;;;;;4.20;3.57;;;;;;;28.32;42.01;99753.88;5031965;28;20516;-79
2023/09/06 09:45:39;;;;;;;8.40;3.97;;;;;;;28.29;42.03;99759.72;5028420;28;20570;-79
2023/09/06 09:48:05;;;;;;;3.90;3.30;;;;;;;28.24;41.88;99752.22;5026540;28;20479;-79
2023/09/06 09:50:33;;;;;;;3.20;2.90;;;;;;;28.20;42.20;99751.00;5025634;28;20546;-79
2023/09/06 09:53:01;;;;;;;3.77;3.40;;;;;;;28.09;42.27;99748.94;5024862;28;20974;-79
2023/09/06 09:55:31;;;;;;;7.00;3.80;;;;;;;28.04;42.22;99752.25;5025476;28;20476;-79
2023/09/06 09:57:58;;;;;;;4.27;3.13;;;;;;;28.08;42.06;99742.66;5020850;28;20459;-79
2023/09/06 10:00:28;;;;;;;4.00;3.43;;;;;;;28.13;42.11;99742.06;5021793;28;21701;-79
2023/09/06 10:02:57;;;;;;;4.40;4.00;;;;;;;28.11;42.06;99753.09;5021702;28;20957;-79
2023/09/06 10:05:26;;;;;;;3.90;2.80;;;;;;;28.13;41.57;99744.75;5024292;28;20519;-80
2023/09/06 10:07:55;;;;;;;3.60;3.20;;;;;;;28.12;41.60;99748.50;5012874;28;20527;-79
2023/09/06 10:10:26;;;;;;;4.40;3.30;;;;;;;28.10;41.59;99737.91;5023298;28;20718;-80
2023/09/06 10:12:52;;;;;;;3.53;3.23;;;;;;;28.13;41.67;99740.19;5018765;28;20623;-79
2023/09/06 10:15:25;;;;;;;6.27;3.70;;;;;;;28.10;40.88;99735.19;5022280;28;20464;-79
2023/09/06 10:17:54;;;;;;;3.43;3.13;;;;;;;28.08;41.13;99736.44;5025698;28;20452;-79
2023/09/06 10:20:23;;;;;;;4.37;2.40;;;;;;;28.17;41.05;99735.22;5024432;28;21272;-79
2023/09/06 10:22:53;;;;;;;4.03;3.53;;;;;;;28.27;40.96;99727.50;5023907;28;20593;-78
2023/09/06 10:25:19;;;;;;;4.77;2.93;;;;;;;28.39;40.60;99725.81;5024878;28;20456;-78
2023/09/06 10:27:52;;;;;;;3.50;3.20;;;;;;;28.51;40.07;99719.78;5029390;28;21183;-78
2023/09/06 10:30:48;;;;;;;3.00;2.70;;;;;;;28.59;40.05;99714.97;5028488;28;20750;-78
2023/09/06 10:33:42;;;;;;;3.77;3.40;;;;;;;28.76;40.06;99712.66;5026959;28;21716;-78
2023/09/06 10:36:19;;;;;;;3.90;3.00;;;;;;;28.81;39.98;99718.25;5010750;28;20531;-78
2023/09/06 10:38:50;;;;;;;5.00;3.10;;;;;;;28.86;39.94;99707.59;5026213;28;20617;-78
2023/09/06 10:41:17;;;;;;;4.63;3.03;;;;;;;28.89;39.66;99709.06;5025159;28;20783;-79
2023/09/06 10:43:58;;;;;;;3.50;2.67;;;;;;;28.93;39.59;99712.19;5022618;28;20544;-80
2023/09/06 10:46:26;;;;;;;3.63;2.77;;;;;;;28.94;39.75;99714.66;5018509;28;20458;-79
2023/09/06 10:49:11;;;;;;;3.13;2.70;;;;;;;28.87;38.59;99712.00;5020531;28;20957;-80
2023/09/06 10:51:57;;;;;;;4.23;2.70;;;;;;;28.85;38.59;99714.06;5021354;28;20946;-79
2023/09/06 10:54:53;;;;;;;2.47;2.27;;;;;;;28.80;38.56;99716.59;5003570;28;20965;-80
2023/09/06 10:57:18;;;;;;;1.97;1.80;;;;;;;28.90;38.40;99708.03;5007013;28;20496;-79
2023/09/06 11:00:13;;;;;;;2.53;2.33;;;;;;;28.98;38.14;99709.66;5020468;28;21516;-79
2023/09/06 11:02:38;;;;;;;3.20;2.90;;;;;;;29.00;38.05;99712.97;5021420;28;20194;-79
2023/09/06 11:05:15;;;;;;;2.83;2.40;;;;;;;29.01;37.68;99709.22;5026464;28;21514;-80
2023/09/06 11:07:43;;;;;;;5.90;2.83;;;;;;;28.96;37.52;99701.75;5027450;28;20213;-80
2023/09/06 11:10:09;;;;;;;2.67;2.47;;;;;;;28.80;37.06;99700.38;5032202;28;20550;-79
2023/09/06 11:12:36;;;;;;;3.00;2.70;;;;;;;28.78;37.40;99699.75;5024914;28;20459;-78
2023/09/06 11:15:01;;;;;;;3.10;2.80;;;;;;;28.83;37.76;99697.22;5030459;28;20467;-78
2023/09/06 11:17:27;;;;;;;5.13;2.50;;;;;;;28.88;37.94;99700.13;5022963;28;21225;-78
2023/09/06 11:19:52;;;;;;;4.10;2.80;;;;;;;28.91;38.15;99693.44;5027993;28;20198;-78
2023/09/06 11:22:19;;;;;;;3.57;3.00;;;;;;;28.86;38.41;99691.38;5030973;28;20209;-78
2023/09/06 11:24:44;;;;;;;3.23;2.30;;;;;;;28.72;37.98;99686.25;5033042;28;21140;-80
2023/09/06 11:27:33;;;;;;;3.00;2.40;;;;;;;28.63;38.12;99683.81;5026799;28;20472;-79
2023/09/06 11:30:10;;;;;;;3.00;2.30;;;;;;;28.60;38.51;99686.09;5033241;28;20201;-78
2023/09/06 11:32:39;;;;;;;4.30;2.33;;;;;;;28.58;37.87;99670.09;5027147;28;20451;-78
2023/09/06 11:35:08;;;;;;;3.10;2.20;;;;;;;28.58;38.24;99669.28;5024499;28;20490;-78
2023/09/06 11:37:37;;;;;;;2.07;1.93;;;;;;;28.61;37.85;99660.72;5024909;28;20459;-78
2023/09/06 11:40:12;;;;;;;3.83;2.87;;;;;;;28.70;38.06;99664.00;5031030;28;20451;-80